sensor_id;sensor_type;location;lat;lon;timestamp;P1;durP1;ratioP1;P2;durP2;ratioP2
32032;SDS011;31720;52.638;9.216;2022-09-27T00:00:09;1.13;;;1.00;;
32032;SDS011;31720;52.638;9.216;2022-09-27T00:03:12;1.58;;;1.08;;
32032;SDS011;31720;52.638;9.216;2022-09-27T00:06:14;1.13;;;0.93;;
32032;SDS011;31720;52.638;9.216;2022-09-27T00:09:20;1.63;;;1.10;;
32032;SDS011;31720;52.638;9.216;2022-09-27T00:12:21;1.10;;;1.00;;
32032;SDS011;31720;52.638;9.216;2022-09-27T00:15:23;2.08;;;1.33;;
32032;SDS011;31720;52.638;9.216;2022-09-27T00:18:25;1.38;;;0.90;;
32032;SDS011;31720;52.638;9.216;2022-09-27T00:21:27;1.23;;;1.13;;
32032;SDS011;31720;52.638;9.216;2022-09-27T00:24:30;1.65;;;1.05;;
32032;SDS011;31720;52.638;9.216;2022-09-27T00:27:32;7.20;;;1.58;;
32032;SDS011;31720;52.638;9.216;2022-09-27T00:30:33;1.77;;;1.10;;
32032;SDS011;31720;52.638;9.216;2022-09-27T00:33:36;1.40;;;1.15;;
32032;SDS011;31720;52.638;9.216;2022-09-27T00:36:37;1.63;;;1.30;;
32032;SDS011;31720;52.638;9.216;2022-09-27T00:39:38;1.30;;;1.20;;
32032;SDS011;31720;52.638;9.216;2022-09-27T00:42:40;2.30;;;1.70;;
32032;SDS011;31720;52.638;9.216;2022-09-27T00:45:42;2.22;;;1.95;;
32032;SDS011;31720;52.638;9.216;2022-09-27T00:48:48;2.40;;;1.75;;
32032;SDS011;31720;52.638;9.216;2022-09-27T00:52:01;6.43;;;1.85;;
32032;SDS011;31720;52.638;9.216;2022-09-27T00:55:06;4.82;;;2.45;;
32032;SDS011;31720;52.638;9.216;2022-09-27T00:58:11;2.22;;;1.95;;
32032;SDS011;31720;52.638;9.216;2022-09-27T01:01:15;3.75;;;2.40;;
32032;SDS011;31720;52.638;9.216;2022-09-27T01:04:19;3.42;;;2.35;;
32032;SDS011;31720;52.638;9.216;2022-09-27T01:07:24;3.85;;;2.72;;
32032;SDS011;31720;52.638;9.216;2022-09-27T01:10:26;4.68;;;3.08;;
32032;SDS011;31720;52.638;9.216;2022-09-27T01:13:34;3.05;;;2.58;;
32032;SDS011;31720;52.638;9.216;2022-09-27T01:16:45;3.80;;;2.92;;
32032;SDS011;31720;52.638;9.216;2022-09-27T01:20:01;3.63;;;2.95;;
32032;SDS011;31720;52.638;9.216;2022-09-27T01:23:23;5.00;;;3.35;;
32032;SDS011;31720;52.638;9.216;2022-09-27T01:26:45;5.30;;;3.10;;
32032;SDS011;31720;52.638;9.216;2022-09-27T01:30:15;4.53;;;3.25;;
32032;SDS011;31720;52.638;9.216;2022-09-27T01:33:29;5.63;;;3.90;;
32032;SDS011;31720;52.638;9.216;2022-09-27T01:36:41;5.22;;;3.88;;
32032;SDS011;31720;52.638;9.216;2022-09-27T01:39:53;7.35;;;4.57;;
32032;SDS011;31720;52.638;9.216;2022-09-27T01:43:02;7.73;;;4.07;;
32032;SDS011;31720;52.638;9.216;2022-09-27T01:46:11;4.05;;;2.83;;
32032;SDS011;31720;52.638;9.216;2022-09-27T01:49:21;7.47;;;4.45;;
32032;SDS011;31720;52.638;9.216;2022-09-27T01:52:28;7.68;;;4.22;;
32032;SDS011;31720;52.638;9.216;2022-09-27T01:55:35;5.53;;;3.92;;
32032;SDS011;31720;52.638;9.216;2022-09-27T01:58:40;5.43;;;3.60;;
32032;SDS011;31720;52.638;9.216;2022-09-27T02:01:49;6.65;;;3.97;;
32032;SDS011;31720;52.638;9.216;2022-09-27T02:04:52;5.57;;;3.67;;
32032;SDS011;31720;52.638;9.216;2022-09-27T02:07:57;5.18;;;3.50;;
32032;SDS011;31720;52.638;9.216;2022-09-27T02:11:03;7.35;;;4.10;;
32032;SDS011;31720;52.638;9.216;2022-09-27T02:14:10;6.55;;;4.13;;
32032;SDS011;31720;52.638;9.216;2022-09-27T02:17:20;6.18;;;4.00;;
32032;SDS011;31720;52.638;9.216;2022-09-27T02:20:26;8.20;;;4.95;;
32032;SDS011;31720;52.638;9.216;2022-09-27T02:23:32;5.00;;;3.78;;
32032;SDS011;31720;52.638;9.216;2022-09-27T02:26:40;6.57;;;4.10;;
32032;SDS011;31720;52.638;9.216;2022-09-27T02:29:46;7.38;;;4.38;;
32032;SDS011;31720;52.638;9.216;2022-09-27T02:32:53;7.07;;;4.88;;
32032;SDS011;31720;52.638;9.216;2022-09-27T02:35:55;7.40;;;3.85;;
32032;SDS011;31720;52.638;9.216;2022-09-27T02:38:57;10.20;;;4.40;;
32032;SDS011;31720;52.638;9.216;2022-09-27T02:41:59;6.43;;;4.55;;
32032;SDS011;31720;52.638;9.216;2022-09-27T02:45:00;13.10;;;5.63;;
32032;SDS011;31720;52.638;9.216;2022-09-27T02:48:08;9.90;;;5.40;;
32032;SDS011;31720;52.638;9.216;2022-09-27T02:51:23;10.73;;;5.07;;
32032;SDS011;31720;52.638;9.216;2022-09-27T02:54:34;10.30;;;6.05;;
32032;SDS011;31720;52.638;9.216;2022-09-27T02:57:47;9.88;;;5.70;;
32032;SDS011;31720;52.638;9.216;2022-09-27T03:01:03;8.88;;;5.00;;
32032;SDS011;31720;52.638;9.216;2022-09-27T03:04:12;9.38;;;4.78;;
32032;SDS011;31720;52.638;9.216;2022-09-27T03:07:19;5.00;;;3.05;;
32032;SDS011;31720;52.638;9.216;2022-09-27T03:10:23;5.20;;;3.75;;
32032;SDS011;31720;52.638;9.216;2022-09-27T03:13:26;6.75;;;3.20;;
32032;SDS011;31720;52.638;9.216;2022-09-27T03:16:28;4.35;;;2.90;;
32032;SDS011;31720;52.638;9.216;2022-09-27T03:19:30;4.72;;;2.92;;
32032;SDS011;31720;52.638;9.216;2022-09-27T03:22:32;5.05;;;2.90;;
32032;SDS011;31720;52.638;9.216;2022-09-27T03:25:33;6.55;;;2.30;;
32032;SDS011;31720;52.638;9.216;2022-09-27T03:28:35;11.88;;;2.65;;
32032;SDS011;31720;52.638;9.216;2022-09-27T03:31:36;4.82;;;2.20;;
32032;SDS011;31720;52.638;9.216;2022-09-27T03:34:39;5.00;;;2.80;;
32032;SDS011;31720;52.638;9.216;2022-09-27T03:37:40;4.63;;;2.35;;
32032;SDS011;31720;52.638;9.216;2022-09-27T03:40:42;5.20;;;2.67;;
32032;SDS011;31720;52.638;9.216;2022-09-27T03:43:43;2.40;;;1.83;;
32032;SDS011;31720;52.638;9.216;2022-09-27T03:46:44;5.75;;;2.25;;
32032;SDS011;31720;52.638;9.216;2022-09-27T03:49:47;4.30;;;2.55;;
32032;SDS011;31720;52.638;9.216;2022-09-27T03:52:48;4.50;;;2.40;;
32032;SDS011;31720;52.638;9.216;2022-09-27T03:55:50;6.68;;;2.88;;
32032;SDS011;31720;52.638;9.216;2022-09-27T03:58:51;3.63;;;2.17;;
32032;SDS011;31720;52.638;9.216;2022-09-27T04:01:53;4.72;;;2.55;;
32032;SDS011;31720;52.638;9.216;2022-09-27T04:04:56;7.30;;;2.88;;
32032;SDS011;31720;52.638;9.216;2022-09-27T04:07:58;4.20;;;2.50;;
32032;SDS011;31720;52.638;9.216;2022-09-27T04:10:59;5.85;;;2.38;;
32032;SDS011;31720;52.638;9.216;2022-09-27T04:14:02;6.05;;;2.47;;
32032;SDS011;31720;52.638;9.216;2022-09-27T04:17:04;3.53;;;2.20;;
32032;SDS011;31720;52.638;9.216;2022-09-27T04:20:07;5.38;;;2.70;;
32032;SDS011;31720;52.638;9.216;2022-09-27T04:23:09;6.22;;;2.80;;
32032;SDS011;31720;52.638;9.216;2022-09-27T04:26:11;8.52;;;2.90;;
32032;SDS011;31720;52.638;9.216;2022-09-27T04:29:12;6.45;;;2.67;;
32032;SDS011;31720;52.638;9.216;2022-09-27T04:32:14;5.90;;;3.13;;
32032;SDS011;31720;52.638;9.216;2022-09-27T04:35:17;6.15;;;2.75;;
32032;SDS011;31720;52.638;9.216;2022-09-27T04:38:36;9.38;;;3.15;;
32032;SDS011;31720;52.638;9.216;2022-09-27T04:41:38;5.05;;;3.03;;
32032;SDS011;31720;52.638;9.216;2022-09-27T04:44:40;8.45;;;2.47;;
32032;SDS011;31720;52.638;9.216;2022-09-27T04:47:41;5.40;;;2.42;;
32032;SDS011;31720;52.638;9.216;2022-09-27T04:50:45;7.35;;;2.35;;
32032;SDS011;31720;52.638;9.216;2022-09-27T04:53:46;4.70;;;1.80;;
32032;SDS011;31720;52.638;9.216;2022-09-27T04:56:48;4.53;;;2.70;;
32032;SDS011;31720;52.638;9.216;2022-09-27T04:59:49;3.78;;;2.45;;
32032;SDS011;31720;52.638;9.216;2022-09-27T05:02:50;6.07;;;3.00;;
32032;SDS011;31720;52.638;9.216;2022-09-27T05:05:53;4.63;;;2.65;;
32032;SDS011;31720;52.638;9.216;2022-09-27T05:08:54;6.88;;;3.20;;
32032;SDS011;31720;52.638;9.216;2022-09-27T05:11:57;4.03;;;2.47;;
32032;SDS011;31720;52.638;9.216;2022-09-27T05:14:58;3.15;;;2.10;;
32032;SDS011;31720;52.638;9.216;2022-09-27T05:17:59;3.95;;;2.38;;
32032;SDS011;31720;52.638;9.216;2022-09-27T05:21:02;6.80;;;2.53;;
32032;SDS011;31720;52.638;9.216;2022-09-27T05:24:04;3.22;;;2.20;;
32032;SDS011;31720;52.638;9.216;2022-09-27T05:27:06;2.83;;;1.92;;
32032;SDS011;31720;52.638;9.216;2022-09-27T05:30:08;2.70;;;2.05;;
32032;SDS011;31720;52.638;9.216;2022-09-27T05:33:11;7.47;;;2.60;;
32032;SDS011;31720;52.638;9.216;2022-09-27T05:36:13;5.45;;;2.03;;
32032;SDS011;31720;52.638;9.216;2022-09-27T05:39:15;4.95;;;2.45;;
32032;SDS011;31720;52.638;9.216;2022-09-27T05:42:17;6.03;;;2.53;;
32032;SDS011;31720;52.638;9.216;2022-09-27T05:45:19;9.10;;;2.58;;
32032;SDS011;31720;52.638;9.216;2022-09-27T05:48:22;4.75;;;1.98;;
32032;SDS011;31720;52.638;9.216;2022-09-27T05:51:24;5.40;;;2.25;;
32032;SDS011;31720;52.638;9.216;2022-09-27T05:54:25;8.77;;;1.95;;
32032;SDS011;31720;52.638;9.216;2022-09-27T05:57:28;3.38;;;1.92;;
32032;SDS011;31720;52.638;9.216;2022-09-27T06:00:30;7.78;;;2.70;;
32032;SDS011;31720;52.638;9.216;2022-09-27T06:03:32;5.90;;;2.20;;
32032;SDS011;31720;52.638;9.216;2022-09-27T06:06:36;6.60;;;2.90;;
32032;SDS011;31720;52.638;9.216;2022-09-27T06:09:37;3.05;;;1.98;;
32032;SDS011;31720;52.638;9.216;2022-09-27T06:12:38;10.77;;;2.65;;
32032;SDS011;31720;52.638;9.216;2022-09-27T06:15:41;2.45;;;2.03;;
32032;SDS011;31720;52.638;9.216;2022-09-27T06:18:44;2.95;;;2.08;;
32032;SDS011;31720;52.638;9.216;2022-09-27T06:21:49;3.10;;;2.10;;
32032;SDS011;31720;52.638;9.216;2022-09-27T06:24:50;3.42;;;2.15;;
32032;SDS011;31720;52.638;9.216;2022-09-27T06:27:52;8.57;;;1.92;;
32032;SDS011;31720;52.638;9.216;2022-09-27T06:30:53;2.03;;;1.80;;
32032;SDS011;31720;52.638;9.216;2022-09-27T06:33:55;3.65;;;2.05;;
32032;SDS011;31720;52.638;9.216;2022-09-27T06:36:58;3.03;;;1.65;;
32032;SDS011;31720;52.638;9.216;2022-09-27T06:39:59;6.50;;;1.83;;
32032;SDS011;31720;52.638;9.216;2022-09-27T06:43:01;3.65;;;1.77;;
32032;SDS011;31720;52.638;9.216;2022-09-27T06:46:03;5.25;;;2.45;;
32032;SDS011;31720;52.638;9.216;2022-09-27T06:49:05;4.45;;;2.00;;
32032;SDS011;31720;52.638;9.216;2022-09-27T06:52:07;5.85;;;2.22;;
32032;SDS011;31720;52.638;9.216;2022-09-27T06:55:09;3.28;;;2.17;;
32032;SDS011;31720;52.638;9.216;2022-09-27T06:58:10;3.25;;;2.03;;
32032;SDS011;31720;52.638;9.216;2022-09-27T07:01:29;2.30;;;1.60;;
32032;SDS011;31720;52.638;9.216;2022-09-27T07:04:31;6.15;;;1.85;;
32032;SDS011;31720;52.638;9.216;2022-09-27T07:07:33;2.38;;;1.58;;
32032;SDS011;31720;52.638;9.216;2022-09-27T07:10:35;3.95;;;1.52;;
32032;SDS011;31720;52.638;9.216;2022-09-27T07:13:37;2.92;;;1.48;;
32032;SDS011;31720;52.638;9.216;2022-09-27T07:16:42;2.40;;;1.70;;
32032;SDS011;31720;52.638;9.216;2022-09-27T07:19:43;3.17;;;1.35;;
32032;SDS011;31720;52.638;9.216;2022-09-27T07:22:46;5.80;;;1.27;;
32032;SDS011;31720;52.638;9.216;2022-09-27T07:25:48;2.67;;;1.10;;
32032;SDS011;31720;52.638;9.216;2022-09-27T07:28:49;5.35;;;1.08;;
32032;SDS011;31720;52.638;9.216;2022-09-27T07:31:52;1.40;;;1.30;;
32032;SDS011;31720;52.638;9.216;2022-09-27T07:34:53;2.55;;;1.13;;
32032;SDS011;31720;52.638;9.216;2022-09-27T07:37:56;2.00;;;1.42;;
32032;SDS011;31720;52.638;9.216;2022-09-27T07:40:58;2.22;;;1.50;;
32032;SDS011;31720;52.638;9.216;2022-09-27T07:44:04;2.13;;;1.30;;
32032;SDS011;31720;52.638;9.216;2022-09-27T07:47:07;1.67;;;1.35;;
32032;SDS011;31720;52.638;9.216;2022-09-27T07:50:09;3.53;;;1.90;;
32032;SDS011;31720;52.638;9.216;2022-09-27T07:53:12;1.95;;;1.02;;
32032;SDS011;31720;52.638;9.216;2022-09-27T07:56:14;1.02;;;0.85;;
32032;SDS011;31720;52.638;9.216;2022-09-27T07:59:15;2.47;;;0.75;;
32032;SDS011;31720;52.638;9.216;2022-09-27T08:02:17;9.68;;;1.25;;
32032;SDS011;31720;52.638;9.216;2022-09-27T08:05:18;1.55;;;0.90;;
32032;SDS011;31720;52.638;9.216;2022-09-27T08:08:21;2.25;;;0.90;;
32032;SDS011;31720;52.638;9.216;2022-09-27T08:11:23;3.20;;;1.20;;
32032;SDS011;31720;52.638;9.216;2022-09-27T08:14:24;1.42;;;0.93;;
32032;SDS011;31720;52.638;9.216;2022-09-27T08:17:25;0.70;;;0.70;;
32032;SDS011;31720;52.638;9.216;2022-09-27T08:20:28;2.35;;;1.00;;
32032;SDS011;31720;52.638;9.216;2022-09-27T08:23:30;0.90;;;0.77;;
32032;SDS011;31720;52.638;9.216;2022-09-27T08:26:32;2.35;;;0.95;;
32032;SDS011;31720;52.638;9.216;2022-09-27T08:29:33;2.40;;;0.90;;
32032;SDS011;31720;52.638;9.216;2022-09-27T08:32:35;1.15;;;0.77;;
32032;SDS011;31720;52.638;9.216;2022-09-27T08:35:37;2.78;;;1.25;;
32032;SDS011;31720;52.638;9.216;2022-09-27T08:38:39;1.88;;;0.70;;
32032;SDS011;31720;52.638;9.216;2022-09-27T08:41:42;1.55;;;0.68;;
32032;SDS011;31720;52.638;9.216;2022-09-27T08:44:52;0.60;;;0.60;;
32032;SDS011;31720;52.638;9.216;2022-09-27T08:48:01;0.47;;;0.47;;
32032;SDS011;31720;52.638;9.216;2022-09-27T08:51:05;2.72;;;1.50;;
32032;SDS011;31720;52.638;9.216;2022-09-27T08:54:15;2.90;;;0.52;;
32032;SDS011;31720;52.638;9.216;2022-09-27T08:57:21;0.63;;;0.63;;
32032;SDS011;31720;52.638;9.216;2022-09-27T09:00:24;0.47;;;0.47;;
32032;SDS011;31720;52.638;9.216;2022-09-27T09:03:29;0.40;;;0.40;;
32032;SDS011;31720;52.638;9.216;2022-09-27T09:06:33;0.85;;;0.50;;
32032;SDS011;31720;52.638;9.216;2022-09-27T09:09:43;1.92;;;0.80;;
32032;SDS011;31720;52.638;9.216;2022-09-27T09:12:54;1.77;;;0.63;;
32032;SDS011;31720;52.638;9.216;2022-09-27T09:16:02;3.05;;;0.85;;
32032;SDS011;31720;52.638;9.216;2022-09-27T09:19:19;1.10;;;0.60;;
32032;SDS011;31720;52.638;9.216;2022-09-27T09:22:38;2.63;;;0.75;;
32032;SDS011;31720;52.638;9.216;2022-09-27T09:25:54;0.73;;;0.60;;
32032;SDS011;31720;52.638;9.216;2022-09-27T09:29:04;1.67;;;0.65;;
32032;SDS011;31720;52.638;9.216;2022-09-27T09:32:20;0.63;;;0.60;;
32032;SDS011;31720;52.638;9.216;2022-09-27T09:35:31;1.88;;;0.90;;
32032;SDS011;31720;52.638;9.216;2022-09-27T09:38:39;0.70;;;0.70;;
32032;SDS011;31720;52.638;9.216;2022-09-27T09:41:54;0.70;;;0.70;;
32032;SDS011;31720;52.638;9.216;2022-09-27T09:45:04;1.20;;;0.70;;
32032;SDS011;31720;52.638;9.216;2022-09-27T09:48:12;3.30;;;0.68;;
32032;SDS011;31720;52.638;9.216;2022-09-27T09:51:18;2.10;;;0.60;;
32032;SDS011;31720;52.638;9.216;2022-09-27T09:54:25;0.80;;;0.70;;
32032;SDS011;31720;52.638;9.216;2022-09-27T09:57:32;3.72;;;0.70;;
32032;SDS011;31720;52.638;9.216;2022-09-27T10:00:39;3.05;;;0.85;;
32032;SDS011;31720;52.638;9.216;2022-09-27T10:03:41;1.10;;;0.63;;
32032;SDS011;31720;52.638;9.216;2022-09-27T10:06:43;0.60;;;0.60;;
32032;SDS011;31720;52.638;9.216;2022-09-27T10:09:44;1.17;;;0.73;;
32032;SDS011;31720;52.638;9.216;2022-09-27T10:12:47;0.65;;;0.50;;
32032;SDS011;31720;52.638;9.216;2022-09-27T10:15:53;1.17;;;0.80;;
32032;SDS011;31720;52.638;9.216;2022-09-27T10:18:59;1.80;;;0.80;;
32032;SDS011;31720;52.638;9.216;2022-09-27T10:22:12;2.28;;;0.90;;
32032;SDS011;31720;52.638;9.216;2022-09-27T10:25:16;0.95;;;0.70;;
32032;SDS011;31720;52.638;9.216;2022-09-27T10:28:26;0.70;;;0.70;;
32032;SDS011;31720;52.638;9.216;2022-09-27T10:31:34;0.40;;;0.40;;
32032;SDS011;31720;52.638;9.216;2022-09-27T10:34:39;0.57;;;0.50;;
32032;SDS011;31720;52.638;9.216;2022-09-27T10:37:41;0.50;;;0.50;;
32032;SDS011;31720;52.638;9.216;2022-09-27T10:40:44;0.40;;;0.40;;
32032;SDS011;31720;52.638;9.216;2022-09-27T10:43:47;2.28;;;0.50;;
32032;SDS011;31720;52.638;9.216;2022-09-27T10:46:49;0.50;;;0.50;;
32032;SDS011;31720;52.638;9.216;2022-09-27T10:50:01;0.70;;;0.50;;
32032;SDS011;31720;52.638;9.216;2022-09-27T10:53:11;0.88;;;0.57;;
32032;SDS011;31720;52.638;9.216;2022-09-27T10:56:19;0.45;;;0.45;;
32032;SDS011;31720;52.638;9.216;2022-09-27T10:59:24;1.85;;;0.50;;
32032;SDS011;31720;52.638;9.216;2022-09-27T11:02:28;0.75;;;0.57;;
32032;SDS011;31720;52.638;9.216;2022-09-27T11:05:33;2.15;;;0.60;;
32032;SDS011;31720;52.638;9.216;2022-09-27T11:08:37;0.50;;;0.50;;
32032;SDS011;31720;52.638;9.216;2022-09-27T11:11:39;2.85;;;0.80;;
32032;SDS011;31720;52.638;9.216;2022-09-27T11:14:50;1.60;;;0.60;;
32032;SDS011;31720;52.638;9.216;2022-09-27T11:17:55;3.55;;;0.82;;
32032;SDS011;31720;52.638;9.216;2022-09-27T11:21:04;2.42;;;0.90;;
32032;SDS011;31720;52.638;9.216;2022-09-27T11:24:20;1.52;;;0.90;;
32032;SDS011;31720;52.638;9.216;2022-09-27T11:27:33;4.93;;;0.60;;
32032;SDS011;31720;52.638;9.216;2022-09-27T11:30:46;1.23;;;0.90;;
32032;SDS011;31720;52.638;9.216;2022-09-27T11:33:59;3.65;;;0.70;;
32032;SDS011;31720;52.638;9.216;2022-09-27T11:37:16;4.17;;;1.40;;
32032;SDS011;31720;52.638;9.216;2022-09-27T11:40:28;2.53;;;0.77;;
32032;SDS011;31720;52.638;9.216;2022-09-27T11:43:38;6.72;;;0.88;;
32032;SDS011;31720;52.638;9.216;2022-09-27T11:46:55;0.43;;;0.40;;
32032;SDS011;31720;52.638;9.216;2022-09-27T11:50:14;0.38;;;0.38;;
32032;SDS011;31720;52.638;9.216;2022-09-27T11:53:37;1.42;;;0.73;;
32032;SDS011;31720;52.638;9.216;2022-09-27T11:56:49;0.80;;;0.40;;
32032;SDS011;31720;52.638;9.216;2022-09-27T12:00:04;1.30;;;0.65;;
32032;SDS011;31720;52.638;9.216;2022-09-27T12:03:28;1.70;;;0.70;;
32032;SDS011;31720;52.638;9.216;2022-09-27T12:06:46;2.88;;;0.95;;
32032;SDS011;31720;52.638;9.216;2022-09-27T12:09:54;1.10;;;0.70;;
32032;SDS011;31720;52.638;9.216;2022-09-27T12:13:00;0.75;;;0.70;;
32032;SDS011;31720;52.638;9.216;2022-09-27T12:16:03;2.42;;;0.80;;
32032;SDS011;31720;52.638;9.216;2022-09-27T12:19:09;1.83;;;0.77;;
32032;SDS011;31720;52.638;9.216;2022-09-27T12:22:18;2.00;;;0.75;;
32032;SDS011;31720;52.638;9.216;2022-09-27T12:25:24;2.35;;;0.85;;
32032;SDS011;31720;52.638;9.216;2022-09-27T12:28:30;2.40;;;1.52;;
32032;SDS011;31720;52.638;9.216;2022-09-27T12:31:40;4.20;;;1.27;;
32032;SDS011;31720;52.638;9.216;2022-09-27T12:34:46;2.95;;;0.80;;
32032;SDS011;31720;52.638;9.216;2022-09-27T12:37:56;1.95;;;1.20;;
32032;SDS011;31720;52.638;9.216;2022-09-27T12:41:02;0.82;;;0.75;;
32032;SDS011;31720;52.638;9.216;2022-09-27T12:44:07;4.15;;;0.80;;
32032;SDS011;31720;52.638;9.216;2022-09-27T12:47:12;2.97;;;0.73;;
32032;SDS011;31720;52.638;9.216;2022-09-27T12:50:27;2.15;;;1.02;;
32032;SDS011;31720;52.638;9.216;2022-09-27T12:53:38;1.50;;;0.98;;
32032;SDS011;31720;52.638;9.216;2022-09-27T12:56:54;2.25;;;0.95;;
32032;SDS011;31720;52.638;9.216;2022-09-27T13:00:04;3.58;;;0.98;;
32032;SDS011;31720;52.638;9.216;2022-09-27T13:03:19;2.53;;;0.55;;
32032;SDS011;31720;52.638;9.216;2022-09-27T13:06:41;0.50;;;0.47;;
32032;SDS011;31720;52.638;9.216;2022-09-27T13:13:25;4.10;;;0.75;;
32032;SDS011;31720;52.638;9.216;2022-09-27T13:16:28;3.40;;;2.00;;
32032;SDS011;31720;52.638;9.216;2022-09-27T13:19:40;0.70;;;0.70;;
32032;SDS011;31720;52.638;9.216;2022-09-27T13:22:44;0.45;;;0.43;;
32032;SDS011;31720;52.638;9.216;2022-09-27T13:25:46;1.02;;;0.63;;
32032;SDS011;31720;52.638;9.216;2022-09-27T13:28:57;1.23;;;0.57;;
32032;SDS011;31720;52.638;9.216;2022-09-27T13:32:19;1.73;;;0.60;;
32032;SDS011;31720;52.638;9.216;2022-09-27T13:35:23;1.88;;;0.50;;
32032;SDS011;31720;52.638;9.216;2022-09-27T13:38:27;0.10;;;0.10;;
32032;SDS011;31720;52.638;9.216;2022-09-27T13:41:30;0.35;;;0.25;;
32032;SDS011;31720;52.638;9.216;2022-09-27T13:44:42;0.30;;;0.25;;
32032;SDS011;31720;52.638;9.216;2022-09-27T13:47:52;0.10;;;0.10;;
32032;SDS011;31720;52.638;9.216;2022-09-27T13:50:57;0.50;;;0.30;;
32032;SDS011;31720;52.638;9.216;2022-09-27T13:54:05;0.68;;;0.20;;
32032;SDS011;31720;52.638;9.216;2022-09-27T13:57:45;0.30;;;0.28;;
32032;SDS011;31720;52.638;9.216;2022-09-27T14:00:52;0.20;;;0.20;;
32032;SDS011;31720;52.638;9.216;2022-09-27T14:03:58;0.35;;;0.25;;
32032;SDS011;31720;52.638;9.216;2022-09-27T14:07:03;0.88;;;0.20;;
32032;SDS011;31720;52.638;9.216;2022-09-27T14:10:05;0.20;;;0.20;;
32032;SDS011;31720;52.638;9.216;2022-09-27T14:13:16;0.55;;;0.55;;
32032;SDS011;31720;52.638;9.216;2022-09-27T14:16:20;1.25;;;0.63;;
32032;SDS011;31720;52.638;9.216;2022-09-27T14:19:22;1.10;;;0.55;;
32032;SDS011;31720;52.638;9.216;2022-09-27T14:22:25;6.18;;;0.82;;
32032;SDS011;31720;52.638;9.216;2022-09-27T14:25:26;1.27;;;0.40;;
32032;SDS011;31720;52.638;9.216;2022-09-27T14:28:30;0.43;;;0.40;;
32032;SDS011;31720;52.638;9.216;2022-09-27T14:31:40;0.93;;;0.68;;
32032;SDS011;31720;52.638;9.216;2022-09-27T14:34:42;0.25;;;0.25;;
32032;SDS011;31720;52.638;9.216;2022-09-27T14:37:43;0.70;;;0.43;;
32032;SDS011;31720;52.638;9.216;2022-09-27T14:40:53;0.95;;;0.57;;
32032;SDS011;31720;52.638;9.216;2022-09-27T14:44:01;2.40;;;0.60;;
32032;SDS011;31720;52.638;9.216;2022-09-27T14:47:06;0.85;;;0.60;;
32032;SDS011;31720;52.638;9.216;2022-09-27T14:50:12;3.50;;;0.60;;
32032;SDS011;31720;52.638;9.216;2022-09-27T14:53:19;1.75;;;0.50;;
32032;SDS011;31720;52.638;9.216;2022-09-27T14:56:23;0.30;;;0.30;;
32032;SDS011;31720;52.638;9.216;2022-09-27T14:59:29;0.73;;;0.55;;
32032;SDS011;31720;52.638;9.216;2022-09-27T15:02:35;0.40;;;0.40;;
32032;SDS011;31720;52.638;9.216;2022-09-27T15:05:39;0.98;;;0.73;;
32032;SDS011;31720;52.638;9.216;2022-09-27T15:08:42;0.65;;;0.50;;
32032;SDS011;31720;52.638;9.216;2022-09-27T15:11:48;0.50;;;0.50;;
32032;SDS011;31720;52.638;9.216;2022-09-27T15:14:54;0.90;;;0.40;;
32032;SDS011;31720;52.638;9.216;2022-09-27T15:17:58;1.05;;;0.68;;
32032;SDS011;31720;52.638;9.216;2022-09-27T15:21:05;0.50;;;0.50;;
32032;SDS011;31720;52.638;9.216;2022-09-27T15:27:37;0.60;;;0.45;;
32032;SDS011;31720;52.638;9.216;2022-09-27T15:30:40;5.82;;;1.15;;
32032;SDS011;31720;52.638;9.216;2022-09-27T15:33:51;0.68;;;0.50;;
32032;SDS011;31720;52.638;9.216;2022-09-27T15:36:55;1.40;;;0.35;;
32032;SDS011;31720;52.638;9.216;2022-09-27T15:40:00;2.38;;;0.32;;
32032;SDS011;31720;52.638;9.216;2022-09-27T15:43:40;0.55;;;0.40;;
32032;SDS011;31720;52.638;9.216;2022-09-27T15:46:45;1.40;;;0.50;;
32032;SDS011;31720;52.638;9.216;2022-09-27T15:49:47;0.40;;;0.40;;
32032;SDS011;31720;52.638;9.216;2022-09-27T15:52:49;0.70;;;0.47;;
32032;SDS011;31720;52.638;9.216;2022-09-27T15:55:51;0.40;;;0.40;;
32032;SDS011;31720;52.638;9.216;2022-09-27T15:58:53;0.40;;;0.32;;
32032;SDS011;31720;52.638;9.216;2022-09-27T16:01:56;0.30;;;0.30;;
32032;SDS011;31720;52.638;9.216;2022-09-27T16:04:58;0.20;;;0.20;;
32032;SDS011;31720;52.638;9.216;2022-09-27T16:08:00;0.30;;;0.30;;
32032;SDS011;31720;52.638;9.216;2022-09-27T16:11:01;0.80;;;0.60;;
32032;SDS011;31720;52.638;9.216;2022-09-27T16:14:04;0.40;;;0.40;;
32032;SDS011;31720;52.638;9.216;2022-09-27T16:17:07;0.40;;;0.40;;
32032;SDS011;31720;52.638;9.216;2022-09-27T16:20:14;0.52;;;0.45;;
32032;SDS011;31720;52.638;9.216;2022-09-27T16:23:17;1.42;;;0.40;;
32032;SDS011;31720;52.638;9.216;2022-09-27T16:26:18;1.98;;;1.02;;
32032;SDS011;31720;52.638;9.216;2022-09-27T16:29:20;1.77;;;1.10;;
32032;SDS011;31720;52.638;9.216;2022-09-27T16:32:23;1.02;;;0.75;;
32032;SDS011;31720;52.638;9.216;2022-09-27T16:35:25;0.43;;;0.40;;
32032;SDS011;31720;52.638;9.216;2022-09-27T16:38:27;0.40;;;0.40;;
32032;SDS011;31720;52.638;9.216;2022-09-27T16:41:29;0.55;;;0.45;;
32032;SDS011;31720;52.638;9.216;2022-09-27T16:44:31;1.52;;;0.40;;
32032;SDS011;31720;52.638;9.216;2022-09-27T16:47:35;0.45;;;0.43;;
32032;SDS011;31720;52.638;9.216;2022-09-27T16:50:37;3.22;;;0.70;;
32032;SDS011;31720;52.638;9.216;2022-09-27T16:53:56;0.68;;;0.68;;
32032;SDS011;31720;52.638;9.216;2022-09-27T16:56:57;1.35;;;0.57;;
32032;SDS011;31720;52.638;9.216;2022-09-27T16:59:59;0.30;;;0.30;;
32032;SDS011;31720;52.638;9.216;2022-09-27T17:03:02;2.65;;;0.57;;
32032;SDS011;31720;52.638;9.216;2022-09-27T17:06:03;1.60;;;0.70;;
32032;SDS011;31720;52.638;9.216;2022-09-27T17:09:05;1.08;;;0.80;;
32032;SDS011;31720;52.638;9.216;2022-09-27T17:12:06;3.95;;;1.05;;
32032;SDS011;31720;52.638;9.216;2022-09-27T17:15:08;0.93;;;0.40;;
32032;SDS011;31720;52.638;9.216;2022-09-27T17:18:10;1.63;;;0.77;;
32032;SDS011;31720;52.638;9.216;2022-09-27T17:21:12;0.85;;;0.65;;
32032;SDS011;31720;52.638;9.216;2022-09-27T17:24:13;1.13;;;0.65;;
32032;SDS011;31720;52.638;9.216;2022-09-27T17:27:15;0.50;;;0.50;;
32032;SDS011;31720;52.638;9.216;2022-09-27T17:30:16;0.88;;;0.60;;
32032;SDS011;31720;52.638;9.216;2022-09-27T17:33:20;1.05;;;0.75;;
32032;SDS011;31720;52.638;9.216;2022-09-27T17:36:22;1.55;;;0.77;;
32032;SDS011;31720;52.638;9.216;2022-09-27T17:39:25;1.15;;;0.70;;
32032;SDS011;31720;52.638;9.216;2022-09-27T17:42:26;1.00;;;0.80;;
32032;SDS011;31720;52.638;9.216;2022-09-27T17:45:28;1.17;;;0.90;;
32032;SDS011;31720;52.638;9.216;2022-09-27T17:48:31;0.60;;;0.60;;
32032;SDS011;31720;52.638;9.216;2022-09-27T17:51:51;0.90;;;0.80;;
32032;SDS011;31720;52.638;9.216;2022-09-27T17:54:53;1.08;;;0.88;;
32032;SDS011;31720;52.638;9.216;2022-09-27T17:57:56;1.10;;;0.88;;
32032;SDS011;31720;52.638;9.216;2022-09-27T18:01:00;1.90;;;1.00;;
32032;SDS011;31720;52.638;9.216;2022-09-27T18:04:04;1.40;;;0.95;;
32032;SDS011;31720;52.638;9.216;2022-09-27T18:07:08;2.00;;;1.25;;
32032;SDS011;31720;52.638;9.216;2022-09-27T18:10:12;1.42;;;0.88;;
32032;SDS011;31720;52.638;9.216;2022-09-27T18:13:13;0.60;;;0.60;;
32032;SDS011;31720;52.638;9.216;2022-09-27T18:16:15;1.85;;;1.33;;
32032;SDS011;31720;52.638;9.216;2022-09-27T18:19:19;1.20;;;0.88;;
32032;SDS011;31720;52.638;9.216;2022-09-27T18:22:20;0.88;;;0.82;;
32032;SDS011;31720;52.638;9.216;2022-09-27T18:25:23;1.58;;;0.90;;
32032;SDS011;31720;52.638;9.216;2022-09-27T18:28:25;0.60;;;0.60;;
32032;SDS011;31720;52.638;9.216;2022-09-27T18:31:27;2.08;;;0.70;;
32032;SDS011;31720;52.638;9.216;2022-09-27T18:34:30;0.90;;;0.60;;
32032;SDS011;31720;52.638;9.216;2022-09-27T18:37:31;1.33;;;1.23;;
32032;SDS011;31720;52.638;9.216;2022-09-27T18:40:33;2.90;;;0.95;;
32032;SDS011;31720;52.638;9.216;2022-09-27T18:43:35;0.68;;;0.68;;